Time;durP1;ratioP1;P1;durP2;ratioP2;P2;SDS_P1;SDS_P2;PMS_P1;PMS_P2;Temp;Humidity;BMP_temperature;BMP_pressure;BME280_temperature;BME280_humidity;BME280_pressure;Samples;Min_cycle;Max_cycle;Signal;HPM_P1;HPM_P2
2021/06/29 00:01:21;;;;;;;10.03;7.70;;;24.70;63.90;;;;;;5099133;28;20462;-45
2021/06/29 00:03:47;;;;;;;7.97;7.17;;;24.70;65.40;;;;;;5089450;28;20882;-46
2021/06/29 00:06:14;;;;;;;8.40;7.60;;;24.70;65.70;;;;;;5095767;28;20453;-44
2021/06/29 00:08:41;;;;;;;7.80;7.10;;;24.60;64.30;;;;;;5081697;28;20482;-49
2021/06/29 00:11:09;;;;;;;7.43;6.50;;;24.60;63.50;;;;;;5096300;28;20441;-49
2021/06/29 00:13:36;;;;;;;8.07;7.33;;;24.60;64.50;;;;;;5087720;28;20459;-48
2021/06/29 00:16:02;;;;;;;15.83;7.47;;;24.60;65.10;;;;;;5076726;28;20515;-46
2021/06/29 00:18:29;;;;;;;7.67;6.97;;;24.60;65.40;;;;;;5075590;28;20451;-49
2021/06/29 00:20:56;;;;;;;8.87;8.10;;;24.60;65.20;;;;;;5076328;28;20508;-49
2021/06/29 00:23:22;;;;;;;7.47;6.87;;;24.50;65.40;;;;;;5076244;28;20825;-47
2021/06/29 00:25:49;;;;;;;8.40;7.10;;;24.60;64.40;;;;;;5078471;28;20470;-51
2021/06/29 00:28:17;;;;;;;7.60;6.93;;;24.50;64.60;;;;;;5075116;28;20850;-50
2021/06/29 00:30:44;;;;;;;8.47;7.67;;;24.50;65.50;;;;;;5081979;28;20934;-45
2021/06/29 01:23:03;;;;;;;8.77;7.97;;;24.00;66.70;;;;;;5072323;28;20528;-45
2021/06/29 01:25:31;;;;;;;8.63;7.90;;;24.00;67.00;;;;;;5074133;28;20480;-49
2021/06/29 01:28:11;;;;;;;11.73;8.67;;;23.90;67.10;;;;;;5074229;28;20515;-48
2021/06/29 01:33:22;;;;;;;8.47;7.73;;;23.80;67.80;;;;;;5073966;28;20874;-48
2021/06/29 01:35:49;;;;;;;9.27;8.37;;;23.80;69.20;;;;;;5073778;28;20458;-45
2021/06/29 01:38:20;;;;;;;8.97;8.10;;;23.80;68.40;;;;;;5073899;28;20438;-44
2021/06/29 01:40:47;;;;;;;8.93;8.03;;;23.80;68.00;;;;;;5074120;28;20466;-44
2021/06/29 01:43:14;;;;;;;9.80;8.80;;;23.80;68.20;;;;;;5073399;28;20815;-45
2021/06/29 01:45:43;;;;;;;8.70;7.77;;;23.80;68.50;;;;;;5074120;28;20447;-45
2021/06/29 01:48:19;;;;;;;10.53;9.20;;;23.80;68.40;;;;;;5073886;28;20485;-47
2021/06/29 01:50:45;;;;;;;9.30;8.10;;;23.80;69.20;;;;;;5073803;28;20457;-46
2021/06/29 01:53:12;;;;;;;8.77;8.07;;;23.80;69.10;;;;;;5073895;28;20523;-48
2021/06/29 01:55:40;;;;;;;8.80;8.03;;;23.80;69.10;;;;;;5073547;28;20570;-46
2021/06/29 01:58:07;;;;;;;8.87;8.07;;;23.80;70.40;;;;;;5073792;28;20447;-44
2021/06/29 02:00:33;;;;;;;10.50;9.50;;;23.80;70.50;;;;;;5073834;28;20504;-46
2021/06/29 02:03:00;;;;;;;9.03;8.23;;;23.90;70.70;;;;;;5073458;28;20996;-45
2021/06/29 02:05:27;;;;;;;8.37;7.60;;;23.90;70.30;;;;;;5073845;28;20450;-49
2021/06/29 02:07:54;;;;;;;9.17;8.17;;;23.90;70.70;;;;;;5073748;28;20553;-49
2021/06/29 02:10:20;;;;;;;9.00;8.23;;;24.00;71.00;;;;;;5073469;28;20965;-51
2021/06/29 02:12:48;;;;;;;10.77;8.90;;;24.00;70.10;;;;;;5073728;28;20500;-51
2021/06/29 02:15:15;;;;;;;11.20;7.40;;;24.00;70.70;;;;;;5073513;28;20515;-50
2021/06/29 02:17:42;;;;;;;8.57;7.77;;;24.00;71.10;;;;;;5073819;28;20834;-47
2021/06/29 02:20:11;;;;;;;9.63;8.73;;;24.00;71.80;;;;;;5073415;28;20453;-46
2021/06/29 02:22:37;;;;;;;8.23;7.43;;;24.00;70.80;;;;;;5073043;28;20482;-45
2021/06/29 02:25:05;;;;;;;10.07;8.97;;;24.00;71.90;;;;;;5073429;28;20515;-48
2021/06/29 02:27:32;;;;;;;8.87;8.00;;;24.00;71.10;;;;;;5073445;28;20431;-48
2021/06/29 02:30:01;;;;;;;10.33;8.60;;;24.00;72.00;;;;;;5129607;22;20602;-43
2021/06/29 02:32:27;;;;;;;9.17;8.37;;;23.90;71.60;;;;;;5112848;28;20502;-46
2021/06/29 02:34:54;;;;;;;10.80;9.30;;;23.90;72.00;;;;;;5114082;28;20505;-43
2021/06/29 02:37:21;;;;;;;10.40;9.50;;;23.90;72.70;;;;;;5113800;28;20962;-46
2021/06/29 02:39:47;;;;;;;9.90;9.00;;;24.00;73.00;;;;;;5113675;28;20978;-48
2021/06/29 02:42:14;;;;;;;8.67;7.80;;;24.00;72.90;;;;;;5115550;28;20480;-46
2021/06/29 02:44:42;;;;;;;10.20;9.17;;;23.90;73.80;;;;;;5117798;28;20784;-49
2021/06/29 02:47:11;;;;;;;9.13;8.43;;;23.90;73.70;;;;;;5117715;28;20455;-47
2021/06/29 02:49:38;;;;;;;9.60;8.33;;;23.90;74.30;;;;;;5116664;28;20459;-45
2021/06/29 02:52:05;;;;;;;9.20;8.40;;;23.90;73.10;;;;;;5096815;28;20925;-49
2021/06/29 02:54:32;;;;;;;9.50;8.60;;;23.90;73.50;;;;;;5097371;28;20464;-47
2021/06/29 02:56:59;;;;;;;10.33;9.33;;;23.80;73.80;;;;;;5097182;28;20477;-51
2021/06/29 02:59:26;;;;;;;9.87;8.93;;;23.80;74.10;;;;;;5097288;28;20453;-50
2021/06/29 03:01:52;;;;;;;9.70;8.80;;;23.90;74.70;;;;;;5096872;28;20526;-50
2021/06/29 03:04:21;;;;;;;8.37;7.60;;;23.90;74.50;;;;;;5097136;28;20498;-48
2021/06/29 03:06:47;;;;;;;9.43;8.63;;;23.90;75.60;;;;;;5097220;28;20457;-49
2021/06/29 03:09:14;;;;;;;9.03;8.23;;;23.90;74.40;;;;;;5096992;28;20441;-46
2021/06/29 03:11:41;;;;;;;8.80;8.00;;;24.00;75.00;;;;;;5097114;28;20429;-46
2021/06/29 03:14:11;;;;;;;10.37;8.57;;;23.90;76.70;;;;;;5096784;28;20440;-51
2021/06/29 03:16:40;;;;;;;9.37;8.47;;;23.90;76.10;;;;;;5096555;28;20465;-51
2021/06/29 03:19:07;;;;;;;10.50;9.50;;;23.90;76.30;;;;;;5097004;28;20943;-48
2021/06/29 03:21:35;;;;;;;9.70;8.90;;;23.90;76.50;;;;;;5096715;28;20441;-46
2021/06/29 03:24:02;;;;;;;10.50;9.30;;;23.90;77.90;;;;;;5096563;28;20458;-46
2021/06/29 03:26:29;;;;;;;9.90;9.10;;;23.90;77.80;;;;;;5096802;28;20506;-50
2021/06/29 03:28:56;;;;;;;10.17;9.27;;;24.00;77.90;;;;;;5096440;28;20437;-44
2021/06/29 03:31:22;;;;;;;10.30;9.07;;;24.00;78.20;;;;;;5095640;28;20477;-47
2021/06/29 03:33:49;;;;;;;10.07;9.10;;;24.00;78.10;;;;;;5095414;28;20531;-47
2021/06/29 03:36:16;;;;;;;11.43;10.23;;;24.00;77.80;;;;;;5095164;28;20910;-48
2021/06/29 03:38:44;;;;;;;9.43;8.53;;;24.00;78.40;;;;;;5095377;28;20442;-47
2021/06/29 03:41:10;;;;;;;13.47;9.77;;;24.00;79.00;;;;;;5094997;28;20450;-44
2021/06/29 03:43:38;;;;;;;9.83;8.93;;;24.10;78.70;;;;;;5095036;28;20879;-46
2021/06/29 03:46:06;;;;;;;9.87;8.87;;;24.00;79.00;;;;;;5094946;28;20445;-48
2021/06/29 03:48:33;;;;;;;9.63;8.73;;;24.00;79.80;;;;;;5095221;28;20528;-46
2021/06/29 03:50:59;;;;;;;10.60;8.83;;;24.00;79.90;;;;;;5094936;28;20532;-47
2021/06/29 03:53:26;;;;;;;9.77;8.87;;;24.10;80.80;;;;;;5093551;28;20450;-48
2021/06/29 03:55:54;;;;;;;10.33;9.23;;;24.10;80.20;;;;;;5094876;28;20482;-49
2021/06/29 03:58:21;;;;;;;10.60;9.00;;;24.10;80.70;;;;;;5094993;28;20502;-51
2021/06/29 04:00:48;;;;;;;10.90;9.50;;;24.10;80.70;;;;;;5094730;28;20968;-50
2021/06/29 04:03:14;;;;;;;10.53;9.53;;;24.00;80.90;;;;;;5094687;28;20496;-45
2021/06/29 04:05:41;;;;;;;10.20;9.30;;;24.10;81.70;;;;;;5094832;28;20511;-48
2021/06/29 04:08:08;;;;;;;10.00;9.10;;;24.00;82.20;;;;;;5094657;28;20973;-48
2021/06/29 04:10:34;;;;;;;9.60;8.70;;;24.10;82.30;;;;;;5094940;28;20922;-49
2021/06/29 04:13:03;;;;;;;10.47;9.47;;;24.10;83.10;;;;;;5094357;28;20449;-45
2021/06/29 04:15:30;;;;;;;10.70;9.60;;;24.10;82.80;;;;;;5095091;28;20429;-46
2021/06/29 04:17:56;;;;;;;10.10;9.20;;;24.10;83.60;;;;;;5094788;28;20506;-46
2021/06/29 04:20:23;;;;;;;10.63;9.70;;;24.10;82.90;;;;;;5094894;28;20453;-44
2021/06/29 04:22:50;;;;;;;11.33;9.13;;;24.10;85.00;;;;;;5094863;28;20965;-44
2021/06/29 04:25:16;;;;;;;10.43;8.90;;;24.10;84.40;;;;;;5096279;28;20453;-50
2021/06/29 04:27:43;;;;;;;12.17;8.10;;;24.20;84.10;;;;;;5095705;28;20499;-44
2021/06/29 04:33:39;;;;;;;9.20;8.30;;;24.20;87.40;;;;;;5172487;27;20512;-44
2021/06/29 04:36:06;;;;;;;10.03;9.23;;;24.30;87.20;;;;;;5152049;27;20630;-44
2021/06/29 04:38:32;;;;;;;9.70;8.80;;;24.30;85.90;;;;;;5125664;27;20971;-45
2021/06/29 04:40:59;;;;;;;12.43;9.03;;;24.30;87.50;;;;;;5092643;28;20507;-44
2021/06/29 04:43:26;;;;;;;10.50;9.40;;;24.30;87.50;;;;;;5092450;28;20499;-46
2021/06/29 04:45:52;;;;;;;10.70;9.67;;;24.30;87.00;;;;;;5091973;28;20450;-45
2021/06/29 04:48:19;;;;;;;10.90;9.63;;;24.40;86.70;;;;;;5091589;28;20453;-47
2021/06/29 04:50:47;;;;;;;11.60;10.00;;;24.30;86.70;;;;;;5089125;28;20458;-47
2021/06/29 04:53:14;;;;;;;11.20;10.03;;;24.30;88.90;;;;;;5072277;28;20447;-45
2021/06/29 04:55:41;;;;;;;11.43;10.27;;;24.20;88.50;;;;;;5071629;28;20446;-47
2021/06/29 04:58:08;;;;;;;11.80;10.20;;;24.20;90.50;;;;;;5070492;28;20454;-46
2021/06/29 05:00:34;;;;;;;12.93;9.27;;;24.20;90.00;;;;;;5070717;28;20447;-45
2021/06/29 05:03:03;;;;;;;10.73;9.73;;;24.10;90.20;;;;;;5070376;28;20826;-47
2021/06/29 05:05:30;;;;;;;11.03;9.93;;;24.10;91.50;;;;;;5070307;28;20446;-49
2021/06/29 05:07:58;;;;;;;11.30;10.30;;;24.20;91.50;;;;;;5071720;28;20434;-46
2021/06/29 05:10:25;;;;;;;10.70;9.70;;;24.20;91.30;;;;;;5071898;28;20453;-48
2021/06/29 05:12:52;;;;;;;11.13;9.93;;;24.20;91.70;;;;;;5071873;28;20484;-43
2021/06/29 05:15:18;;;;;;;11.23;10.20;;;24.20;91.90;;;;;;5070707;28;20458;-44
2021/06/29 05:17:45;;;;;;;11.37;9.27;;;24.20;92.40;;;;;;5070459;28;20453;-45
2021/06/29 05:20:13;;;;;;;11.40;10.30;;;24.20;93.20;;;;;;5070485;28;20831;-46
2021/06/29 05:22:40;;;;;;;14.83;8.90;;;24.30;93.50;;;;;;5071268;28;20521;-46
2021/06/29 05:25:09;;;;;;;10.10;8.90;;;24.30;93.60;;;;;;5071377;28;20923;-44
2021/06/29 05:27:39;;;;;;;10.40;9.50;;;24.30;93.50;;;;;;5071244;28;20446;-47
2021/06/29 05:30:07;;;;;;;12.00;10.80;;;24.40;93.70;;;;;;5070792;28;20442;-46
2021/06/29 05:32:34;;;;;;;10.17;9.17;;;24.40;93.60;;;;;;5088527;28;20493;-44
2021/06/29 05:35:01;;;;;;;10.53;9.37;;;24.50;93.90;;;;;;5091369;28;20788;-45
2021/06/29 05:37:29;;;;;;;15.13;10.20;;;24.50;94.20;;;;;;5090765;28;20454;-44
2021/06/29 05:39:56;;;;;;;11.17;9.70;;;24.50;94.10;;;;;;5090068;28;20443;-50
2021/06/29 05:42:24;;;;;;;12.80;9.67;;;24.60;94.10;;;;;;5088565;28;20446;-46
2021/06/29 05:44:51;;;;;;;11.23;10.13;;;24.70;94.10;;;;;;5076095;28;20827;-48
2021/06/29 05:47:21;;;;;;;13.30;11.23;;;24.70;94.30;;;;;;5076284;28;20454;-48
2021/06/29 05:49:48;;;;;;;12.27;11.13;;;24.80;94.10;;;;;;5076517;28;20469;-47
2021/06/29 05:52:17;;;;;;;11.70;10.50;;;24.80;94.00;;;;;;5076333;28;20477;-46
2021/06/29 05:54:44;;;;;;;18.13;11.27;;;24.90;94.40;;;;;;5076302;28;20456;-48
2021/06/29 05:57:12;;;;;;;12.40;11.10;;;24.90;94.50;;;;;;5076038;28;20442;-49
2021/06/29 05:59:40;;;;;;;12.23;11.03;;;24.90;94.40;;;;;;5076324;28;20446;-45
2021/06/29 06:02:08;;;;;;;11.33;10.23;;;24.90;94.70;;;;;;5076409;28;20461;-45
2021/06/29 06:04:37;;;;;;;12.73;11.53;;;24.90;95.00;;;;;;5076097;28;20450;-45
2021/06/29 06:07:05;;;;;;;10.67;9.67;;;24.90;95.30;;;;;;5084253;28;20462;-49
2021/06/29 06:09:33;;;;;;;21.97;11.20;;;24.90;96.00;;;;;;5097721;28;20506;-49
2021/06/29 06:11:59;;;;;;;12.97;11.50;;;24.90;95.60;;;;;;5097385;28;20472;-46
2021/06/29 06:14:26;;;;;;;13.63;11.33;;;25.00;96.00;;;;;;5097321;28;20458;-44
2021/06/29 06:16:54;;;;;;;15.10;13.50;;;25.00;95.90;;;;;;5097183;28;20523;-47
2021/06/29 06:19:21;;;;;;;12.50;11.27;;;25.10;95.80;;;;;;5097409;28;20450;-44
2021/06/29 06:21:48;;;;;;;13.63;12.43;;;25.10;95.90;;;;;;5095770;28;20487;-46
2021/06/29 06:24:15;;;;;;;14.80;12.38;;;25.10;96.20;;;;;;5094919;28;20475;-47
2021/06/29 06:26:41;;;;;;;13.13;11.83;;;25.30;96.40;;;;;;5096154;28;20203;-49
2021/06/29 06:29:08;;;;;;;16.83;12.33;;;25.30;96.30;;;;;;5096937;28;20441;-48
2021/06/29 06:31:35;;;;;;;16.20;12.20;;;25.40;96.30;;;;;;5094495;28;20945;-52
2021/06/29 06:34:03;;;;;;;13.43;12.27;;;25.60;96.30;;;;;;5085250;28;20226;-50
2021/06/29 06:36:31;;;;;;;13.60;12.20;;;25.80;96.20;;;;;;5094391;28;20750;-46
2021/06/29 06:38:58;;;;;;;12.47;11.20;;;25.80;95.90;;;;;;5095238;28;20457;-48
2021/06/29 06:41:25;;;;;;;12.73;11.43;;;25.90;96.20;;;;;;5095339;28;20449;-45
2021/06/29 06:43:51;;;;;;;12.13;10.93;;;26.10;95.70;;;;;;5075425;28;20449;-48
2021/06/29 06:46:18;;;;;;;15.60;12.77;;;26.20;95.60;;;;;;5087974;28;20456;-48
2021/06/29 06:48:45;;;;;;;12.27;11.07;;;26.30;95.50;;;;;;5095600;28;20474;-49
2021/06/29 06:51:13;;;;;;;13.27;12.07;;;26.50;94.90;;;;;;5095171;28;20913;-44
2021/06/29 06:53:39;;;;;;;16.03;13.60;;;26.70;94.90;;;;;;5094795;28;20485;-46
2021/06/29 06:56:14;;;;;;;13.70;12.27;;;27.00;94.90;;;;;;5094468;28;20437;-48
2021/06/29 06:58:41;;;;;;;13.70;11.60;;;27.20;94.50;;;;;;5095335;28;20449;-43
2021/06/29 07:01:07;;;;;;;14.40;12.50;;;27.40;94.30;;;;;;5095597;28;20451;-44
2021/06/29 07:03:34;;;;;;;14.20;12.77;;;27.70;93.60;;;;;;5096169;28;20813;-47
2021/06/29 07:06:01;;;;;;;14.80;12.63;;;27.80;93.00;;;;;;5095579;28;20813;-46
2021/06/29 07:08:28;;;;;;;13.23;11.93;;;28.00;92.50;;;;;;5095482;28;20506;-50
2021/06/29 07:10:57;;;;;;;12.77;11.67;;;28.20;91.90;;;;;;5094805;28;20922;-48
2021/06/29 07:13:24;;;;;;;12.73;11.53;;;28.30;91.40;;;;;;5095335;28;20477;-45
2021/06/29 07:15:50;;;;;;;13.73;12.43;;;28.50;91.30;;;;;;5095340;28;20446;-50
2021/06/29 07:18:18;;;;;;;13.23;12.03;;;28.70;90.90;;;;;;5095148;28;20470;-48
2021/06/29 07:20:46;;;;;;;12.57;11.50;;;29.10;90.50;;;;;;5095142;28;20441;-47
2021/06/29 07:23:14;;;;;;;13.70;11.13;;;29.70;87.20;;;;;;5094903;28;20448;-47
2021/06/29 07:25:43;;;;;;;12.67;11.53;;;30.70;84.80;;;;;;5095042;28;20437;-47
2021/06/29 07:28:10;;;;;;;12.33;11.23;;;31.80;79.30;;;;;;5094768;28;20461;-48
2021/06/29 07:30:38;;;;;;;13.53;12.17;;;33.10;73.70;;;;;;5095009;28;20875;-47
2021/06/29 07:33:06;;;;;;;13.57;12.37;;;34.70;68.80;;;;;;5094719;28;20488;-48
2021/06/29 07:35:33;;;;;;;13.83;12.53;;;36.00;61.30;;;;;;5079872;28;20470;-51
2021/06/29 07:38:00;;;;;;;18.73;13.00;;;36.40;57.80;;;;;;5074311;28;20446;-50
2021/06/29 07:40:29;;;;;;;13.47;12.17;;;36.20;57.50;;;;;;5074352;28;20456;-48
2021/06/29 07:42:57;;;;;;;18.77;12.30;;;35.90;57.30;;;;;;5073816;28;20512;-47
2021/06/29 07:45:28;;;;;;;19.73;13.53;;;35.40;57.60;;;;;;5095534;28;20530;-47
2021/06/29 07:47:56;;;;;;;15.33;13.73;;;34.70;58.20;;;;;;5084758;28;20474;-44
2021/06/29 07:50:23;;;;;;;15.63;14.13;;;34.30;59.30;;;;;;5097525;28;20766;-48
2021/06/29 07:52:50;;;;;;;13.80;12.50;;;34.00;60.00;;;;;;5092978;28;20940;-49
2021/06/29 07:55:16;;;;;;;16.57;14.97;;;33.70;61.10;;;;;;5094670;28;20510;-44
2021/06/29 07:57:43;;;;;;;15.53;13.97;;;33.40;61.10;;;;;;5094334;28;20777;-45
2021/06/29 08:00:13;;;;;;;15.20;11.70;;;33.00;61.90;;;;;;5094075;28;20449;-46
2021/06/29 08:02:40;;;;;;;13.17;11.90;;;32.90;63.90;;;;;;5093804;28;20915;-49
2021/06/29 08:05:08;;;;;;;12.80;11.60;;;33.30;62.10;;;;;;5093819;28;20432;-45
2021/06/29 08:07:35;;;;;;;13.33;10.47;;;33.70;60.90;;;;;;5094198;28;20453;-45
2021/06/29 08:10:06;;;;;;;13.77;12.37;;;33.80;59.90;;;;;;5094537;28;20822;-48
2021/06/29 08:12:33;;;;;;;12.10;11.17;;;33.80;60.40;;;;;;5074681;28;20466;-49
2021/06/29 08:15:00;;;;;;;13.20;11.90;;;34.10;59.70;;;;;;5074596;28;20450;-47
2021/06/29 08:17:29;;;;;;;13.17;11.43;;;34.40;58.60;;;;;;5074590;28;20515;-48
2021/06/29 08:19:56;;;;;;;13.53;12.13;;;34.70;58.70;;;;;;5074220;28;20449;-48
2021/06/29 08:22:23;;;;;;;13.03;11.70;;;35.40;57.90;;;;;;5081374;28;20438;-48
2021/06/29 08:24:51;;;;;;;13.10;11.80;;;36.60;55.60;;;;;;5102081;28;20444;-48
2021/06/29 08:27:17;;;;;;;10.80;9.90;;;37.30;54.00;;;;;;5093394;28;20455;-45
2021/06/29 08:29:46;;;;;;;13.53;12.10;;;37.80;52.10;;;;;;5094441;28;20963;-46
2021/06/29 08:32:13;;;;;;;11.90;11.00;;;37.90;51.90;;;;;;5094899;28;20485;-48
2021/06/29 08:34:41;;;;;;;12.43;11.13;;;37.50;51.40;;;;;;5094177;28;20788;-44
2021/06/29 08:37:09;;;;;;;13.17;12.13;;;36.80;52.40;;;;;;5094222;28;20751;-47
2021/06/29 08:39:35;;;;;;;12.30;11.20;;;36.00;53.20;;;;;;5094169;28;20790;-49
2021/06/29 08:42:02;;;;;;;11.83;10.73;;;35.50;54.60;;;;;;5094067;28;20879;-47
2021/06/29 08:44:29;;;;;;;10.97;10.00;;;35.00;55.40;;;;;;5094106;28;20820;-48
2021/06/29 08:46:56;;;;;;;9.90;9.00;;;34.30;55.30;;;;;;5093899;28;20457;-47
2021/06/29 08:49:23;;;;;;;11.53;10.53;;;34.00;56.40;;;;;;5091230;28;20469;-46
2021/06/29 08:51:51;;;;;;;11.70;10.53;;;33.70;57.20;;;;;;5094791;28;20454;-49
2021/06/29 08:54:20;;;;;;;10.97;9.90;;;33.70;57.60;;;;;;5095158;28;20552;-46
2021/06/29 08:56:47;;;;;;;10.87;10.00;;;33.50;58.70;;;;;;5095929;28;20449;-46
2021/06/29 08:59:14;;;;;;;11.70;10.73;;;33.20;58.10;;;;;;5095584;28;20963;-47
2021/06/29 09:01:40;;;;;;;10.13;9.20;;;33.00;58.90;;;;;;5095450;28;20445;-50
2021/06/29 09:04:07;;;;;;;11.17;10.17;;;32.80;58.60;;;;;;5094763;28;20446;-48
2021/06/29 09:06:37;;;;;;;10.80;9.70;;;32.80;58.60;;;;;;5094804;28;20816;-48
2021/06/29 09:09:31;;;;;;;10.03;9.13;;;32.80;59.00;;;;;;5093504;28;20481;-45
2021/06/29 09:11:58;;;;;;;10.17;9.07;;;32.60;58.80;;;;;;5092703;28;20469;-46
2021/06/29 09:14:28;;;;;;;10.27;9.37;;;32.40;59.80;;;;;;5093338;28;20481;-50
2021/06/29 09:17:19;;;;;;;23.83;19.40;;;32.40;60.70;;;;;;5093103;28;20834;-49
2021/06/29 09:19:46;;;;;;;12.40;11.20;;;32.70;59.30;;;;;;5097142;28;20451;-46
2021/06/29 09:22:26;;;;;;;13.03;11.30;;;32.90;60.00;;;;;;5097321;28;20457;-49
2021/06/29 09:24:55;;;;;;;10.57;9.73;;;32.90;59.90;;;;;;5097134;28;20493;-50
2021/06/29 09:27:41;;;;;;;14.53;9.90;;;32.80;59.30;;;;;;5095600;28;20460;-45
2021/06/29 09:30:29;;;;;;;10.60;9.47;;;32.40;59.20;;;;;;5099109;28;20469;-48
2021/06/29 09:33:03;;;;;;;10.07;9.17;;;32.10;60.00;;;;;;5096618;28;20480;-44
2021/06/29 09:35:30;;;;;;;10.47;9.37;;;31.80;59.90;;;;;;5097283;28;20452;-49
2021/06/29 09:38:00;;;;;;;17.93;9.27;;;31.60;60.50;;;;;;5096883;28;20457;-46
2021/06/29 09:40:33;;;;;;;10.63;9.53;;;31.30;60.10;;;;;;5097196;28;20460;-46
2021/06/29 09:43:12;;;;;;;15.73;8.60;;;31.10;60.70;;;;;;5096907;28;20450;-46
2021/06/29 09:45:44;;;;;;;9.90;9.10;;;31.00;61.40;;;;;;5097455;28;20456;-47
2021/06/29 09:48:11;;;;;;;9.50;8.70;;;30.90;62.00;;;;;;5097794;28;20525;-44
2021/06/29 09:50:41;;;;;;;10.50;9.50;;;30.80;62.10;;;;;;5098286;28;20433;-46
2021/06/29 09:53:16;;;;;;;10.80;9.70;;;30.70;62.40;;;;;;5098058;28;20481;-49
2021/06/29 09:55:46;;;;;;;10.40;9.50;;;30.70;63.50;;;;;;5096595;28;20889;-52
2021/06/29 09:58:14;;;;;;;9.30;8.50;;;30.70;63.40;;;;;;5096345;28;20945;-48
2021/06/29 10:00:45;;;;;;;11.07;9.87;;;30.70;63.10;;;;;;5096322;28;20458;-50
2021/06/29 10:03:32;;;;;;;10.80;9.97;;;30.60;63.10;;;;;;5096547;28;20466;-49
2021/06/29 10:06:00;;;;;;;10.67;9.67;;;30.70;64.50;;;;;;5096398;28;20453;-48
2021/06/29 10:08:32;;;;;;;13.67;12.00;;;30.70;63.40;;;;;;5096235;28;20426;-45
2021/06/29 10:11:20;;;;;;;12.87;11.77;;;30.90;64.50;;;;;;5096010;28;20445;-49
2021/06/29 10:13:52;;;;;;;12.23;10.67;;;31.20;63.60;;;;;;5096169;28;20604;-49
2021/06/29 10:16:22;;;;;;;11.47;10.37;;;31.60;63.00;;;;;;5096700;28;20465;-50
2021/06/29 10:18:53;;;;;;;11.90;10.90;;;32.00;61.90;;;;;;5096436;28;20921;-49
2021/06/29 10:21:22;;;;;;;11.57;10.47;;;32.50;60.80;;;;;;5096630;28;20434;-45
2021/06/29 10:23:53;;;;;;;11.90;10.90;;;33.00;59.40;;;;;;5096420;28;20457;-44
2021/06/29 10:26:24;;;;;;;11.57;10.33;;;33.30;58.50;;;;;;5096344;28;20448;-48
2021/06/29 10:28:52;;;;;;;11.80;9.87;;;33.50;58.90;;;;;;5096150;28;20503;-46
2021/06/29 10:31:23;;;;;;;11.30;10.30;;;33.60;58.60;;;;;;5097793;28;20528;-43
2021/06/29 10:33:51;;;;;;;11.90;11.00;;;33.50;58.10;;;;;;5097241;28;20536;-46
2021/06/29 10:36:22;;;;;;;11.43;10.13;;;33.30;57.90;;;;;;5095797;28;20453;-46
2021/06/29 10:38:49;;;;;;;10.87;10.03;;;32.90;58.10;;;;;;5096849;28;20464;-52
2021/06/29 10:41:17;;;;;;;11.83;10.67;;;32.50;59.00;;;;;;5096765;28;20498;-50
2021/06/29 10:43:46;;;;;;;11.47;10.43;;;32.20;59.50;;;;;;5095860;28;20442;-50
2021/06/29 10:46:31;;;;;;;11.73;10.40;;;32.00;60.10;;;;;;5095950;28;20441;-50
2021/06/29 10:49:31;;;;;;;12.27;11.00;;;31.70;59.60;;;;;;5095651;28;20445;-50
2021/06/29 10:52:01;;;;;;;12.80;11.50;;;31.50;60.50;;;;;;5096545;28;20449;-48
2021/06/29 10:54:43;;;;;;;13.70;12.40;;;31.30;61.80;;;;;;5095820;28;20806;-44
2021/06/29 10:57:12;;;;;;;16.60;15.10;;;31.10;62.90;;;;;;5095748;28;20460;-48
2021/06/29 10:59:41;;;;;;;18.20;16.40;;;30.90;64.10;;;;;;5095258;28;20460;-51
2021/06/29 11:02:10;;;;;;;17.27;15.40;;;30.70;63.90;;;;;;5095729;28;20456;-52
2021/06/29 11:05:03;;;;;;;13.57;12.17;;;30.50;66.20;;;;;;5095278;28;20445;-49
2021/06/29 11:07:43;;;;;;;13.60;12.20;;;30.30;71.00;;;;;;5075657;28;20462;-45
2021/06/29 11:10:26;;;;;;;13.70;12.20;;;30.10;73.90;;;;;;5095156;28;20873;-49
2021/06/29 11:12:56;;;;;;;12.77;11.60;;;29.80;71.90;;;;;;5095115;28;20443;-48
2021/06/29 11:15:41;;;;;;;14.47;11.83;;;29.60;72.50;;;;;;5095270;28;20453;-46
2021/06/29 11:18:08;;;;;;;16.77;15.17;;;29.50;72.40;;;;;;5094841;28;20445;-45
2021/06/29 11:20:41;;;;;;;19.43;17.37;;;29.50;79.00;;;;;;5094681;28;20514;-46
2021/06/29 11:23:11;;;;;;;21.60;15.47;;;29.50;82.60;;;;;;5094679;28;21121;-45
2021/06/29 11:25:43;;;;;;;14.57;13.10;;;29.40;85.90;;;;;;5094792;28;20921;-51
2021/06/29 11:28:15;;;;;;;14.23;12.27;;;29.30;83.00;;;;;;5092666;28;20976;-46
2021/06/29 11:31:03;;;;;;;20.73;15.80;;;29.20;80.00;;;;;;5075899;28;20446;-47
2021/06/29 11:33:35;;;;;;;12.00;10.77;;;29.10;82.90;;;;;;5074326;28;20482;-48
2021/06/29 11:36:08;;;;;;;13.03;11.87;;;29.00;81.60;;;;;;5074660;28;20794;-46
2021/06/29 11:38:37;;;;;;;10.37;9.47;;;29.10;82.50;;;;;;5074571;28;20442;-52
2021/06/29 11:41:27;;;;;;;11.27;10.17;;;29.30;83.50;;;;;;5073892;28;20462;-53
2021/06/29 11:43:54;;;;;;;11.97;10.80;;;29.50;81.50;;;;;;5074368;28;20472;-48
2021/06/29 11:46:47;;;;;;;10.00;9.00;;;29.50;79.20;;;;;;5074155;28;20642;-44
2021/06/29 11:49:15;;;;;;;9.93;9.03;;;29.50;81.10;;;;;;5074322;28;20450;-47
2021/06/29 11:51:51;;;;;;;10.10;9.10;;;29.60;82.90;;;;;;5074201;28;20490;-45
2021/06/29 11:54:32;;;;;;;11.07;10.17;;;29.80;81.50;;;;;;5074364;28;20489;-50
2021/06/29 11:57:00;;;;;;;12.90;10.10;;;30.00;82.60;;;;;;5074391;28;20437;-46
2021/06/29 11:59:28;;;;;;;11.93;10.83;;;30.20;81.60;;;;;;5074232;28;20454;-50
2021/06/29 12:02:03;;;;;;;10.90;9.90;;;30.40;80.00;;;;;;5074458;28;20438;-47
2021/06/29 12:04:29;;;;;;;12.20;11.00;;;30.70;79.40;;;;;;5074128;28;20937;-49
2021/06/29 12:07:05;;;;;;;13.23;12.10;;;30.80;77.80;;;;;;5074152;28;20488;-50
2021/06/29 12:09:33;;;;;;;12.63;11.53;;;31.00;78.10;;;;;;5075090;28;20442;-49
2021/06/29 12:12:20;;;;;;;14.80;13.30;;;31.10;77.80;;;;;;5074016;28;20507;-48
2021/06/29 12:14:47;;;;;;;15.20;13.77;;;31.10;79.70;;;;;;5088323;28;20554;-50
2021/06/29 12:17:14;;;;;;;14.47;13.20;;;31.10;78.10;;;;;;5094471;28;20449;-49
2021/06/29 12:19:41;;;;;;;15.33;14.03;;;31.20;75.40;;;;;;5093890;28;20456;-50
2021/06/29 12:22:10;;;;;;;17.23;15.63;;;31.10;76.60;;;;;;5097110;28;20449;-47
2021/06/29 12:24:37;;;;;;;14.10;12.70;;;31.10;75.70;;;;;;5113074;28;20927;-49
2021/06/29 12:27:17;;;;;;;12.77;11.67;;;31.00;73.80;;;;;;5094173;28;20495;-47
2021/06/29 12:29:45;;;;;;;14.40;13.20;;;31.00;71.30;;;;;;5087962;28;20495;-45
2021/06/29 12:32:19;;;;;;;13.90;12.70;;;31.00;72.30;;;;;;5085621;28;20867;-47
2021/06/29 12:34:46;;;;;;;14.57;13.37;;;30.90;72.60;;;;;;5087101;28;20466;-49
2021/06/29 12:37:14;;;;;;;14.83;13.67;;;30.80;73.00;;;;;;5086297;28;20875;-46
2021/06/29 12:39:40;;;;;;;13.77;12.60;;;30.60;73.80;;;;;;5074075;28;20442;-46
2021/06/29 12:42:12;;;;;;;13.70;12.50;;;30.50;73.90;;;;;;5073895;28;20446;-45
2021/06/29 12:44:39;;;;;;;14.83;13.43;;;30.60;74.50;;;;;;5073812;28;20484;-47
2021/06/29 12:47:11;;;;;;;15.40;13.90;;;30.60;74.20;;;;;;5074224;28;20458;-45
2021/06/29 12:49:38;;;;;;;14.47;13.27;;;30.50;74.30;;;;;;5074460;28;20438;-50
2021/06/29 12:52:09;;;;;;;13.60;11.80;;;30.50;75.70;;;;;;5074656;28;20442;-48
2021/06/29 12:54:39;;;;;;;10.80;10.00;;;30.50;72.80;;;;;;5082720;28;20978;-46
2021/06/29 12:57:08;;;;;;;11.30;10.40;;;30.50;71.40;;;;;;5097849;28;20489;-46
2021/06/29 12:59:37;;;;;;;9.53;8.73;;;30.60;69.70;;;;;;5085272;28;20453;-49
2021/06/29 13:02:06;;;;;;;11.23;10.33;;;30.80;69.40;;;;;;5086779;28;20445;-50
2021/06/29 13:04:42;;;;;;;9.93;9.23;;;30.80;69.40;;;;;;5098051;28;20441;-45
2021/06/29 13:07:09;;;;;;;12.23;11.23;;;30.70;68.90;;;;;;5094016;28;20499;-46
2021/06/29 13:09:42;;;;;;;11.03;10.03;;;30.60;69.00;;;;;;5094797;28;20437;-45
2021/06/29 13:12:13;;;;;;;11.97;10.97;;;30.60;69.90;;;;;;5100504;28;20449;-48
2021/06/29 13:14:52;;;;;;;11.60;10.60;;;30.50;70.10;;;;;;5097311;28;20560;-46
2021/06/29 13:17:19;;;;;;;28.77;21.67;;;30.40;70.20;;;;;;5101072;28;20438;-47
2021/06/29 13:19:45;;;;;;;15.27;13.73;;;30.20;72.30;;;;;;5096102;28;20466;-50
2021/06/29 13:22:14;;;;;;;14.27;12.97;;;30.10;73.70;;;;;;5095466;28;20955;-47
2021/06/29 13:24:45;;;;;;;16.03;14.43;;;30.00;74.70;;;;;;5098130;28;20437;-48
2021/06/29 13:27:13;;;;;;;13.17;11.97;;;30.00;74.40;;;;;;5097270;28;20445;-48
2021/06/29 13:29:42;;;;;;;14.27;12.97;;;30.00;74.90;;;;;;5096656;28;20921;-53
2021/06/29 13:32:18;;;;;;;13.20;12.10;;;29.90;75.90;;;;;;5096517;28;20481;-50
2021/06/29 13:34:46;;;;;;;13.50;12.20;;;29.80;76.50;;;;;;5095059;28;20488;-48
2021/06/29 13:37:18;;;;;;;13.47;12.27;;;29.80;76.70;;;;;;5096784;28;20448;-45
2021/06/29 13:39:46;;;;;;;15.23;13.80;;;29.80;77.30;;;;;;5096289;28;20433;-48